Time;durP1;ratioP1;P1;durP2;ratioP2;P2;SDS_P1;SDS_P2;PMS_P1;PMS_P2;Temp;Humidity;BMP_temperature;BMP_pressure;BME280_temperature;BME280_humidity;BME280_pressure;Samples;Min_cycle;Max_cycle;Signal;HPM_P1;HPM_P2
2022/07/01 00:01:42;;;;;;;35.95;24.20;;;;;;;18.19;100.00;99893.66;1687855;85;21566;-82
2022/07/01 00:04:09;;;;;;;28.73;19.73;;;;;;;18.17;100.00;99896.32;1687805;84;21080;-82
2022/07/01 00:06:37;;;;;;;24.05;14.50;;;;;;;18.14;100.00;99897.59;1687733;84;21021;-83
2022/07/01 00:09:04;;;;;;;26.68;12.25;;;;;;;18.12;100.00;99901.09;1687647;85;21006;-80
2022/07/01 00:11:32;;;;;;;16.57;9.03;;;;;;;18.10;100.00;99898.28;1687714;85;21099;-81
2022/07/01 00:14:00;;;;;;;13.83;7.40;;;;;;;18.10;100.00;99894.17;1687716;85;21053;-83
2022/07/01 00:16:27;;;;;;;12.80;6.97;;;;;;;18.12;100.00;99893.42;1687557;84;21075;-83
2022/07/01 00:18:54;;;;;;;19.02;8.48;;;;;;;18.14;100.00;99902.23;1687776;84;21021;-83
2022/07/01 00:21:21;;;;;;;18.85;8.38;;;;;;;18.18;100.00;99892.50;1687541;85;21072;-82
2022/07/01 00:23:48;;;;;;;15.28;7.65;;;;;;;18.24;100.00;99900.34;1687730;85;21555;-83
2022/07/01 00:26:16;;;;;;;21.73;8.98;;;;;;;18.30;100.00;99900.83;1687966;85;21025;-83
2022/07/01 00:28:42;;;;;;;16.27;6.92;;;;;;;18.38;100.00;99904.66;1726071;83;21093;-82
2022/07/01 00:31:11;;;;;;;14.53;5.40;;;;;;;18.47;100.00;99905.17;1684537;85;21088;-83
2022/07/01 00:33:39;;;;;;;8.03;4.60;;;;;;;18.53;100.00;99907.84;1684513;85;21041;-83
2022/07/01 00:36:06;;;;;;;7.17;4.10;;;;;;;18.57;100.00;99900.02;1684497;85;21028;-83
2022/07/01 00:38:34;;;;;;;9.25;4.78;;;;;;;18.62;100.00;99897.97;1684327;85;21037;-83
2022/07/01 00:41:01;;;;;;;10.82;4.95;;;;;;;18.65;100.00;99903.00;1684625;85;21052;-82
2022/07/01 00:43:36;;;;;;;26.62;10.98;;;;;;;18.65;100.00;99896.98;1684470;85;21468;-83
2022/07/01 00:46:04;;;;;;;47.35;21.97;;;;;;;18.66;100.00;99900.04;1682742;85;21145;-83
2022/07/01 00:48:32;;;;;;;45.35;21.65;;;;;;;18.64;100.00;99896.67;1686440;83;21324;-83
2022/07/01 00:51:01;;;;;;;28.40;13.03;;;;;;;18.59;100.00;99894.63;1686626;82;21048;-83
2022/07/01 00:53:29;;;;;;;39.78;19.80;;;;;;;18.55;100.00;99892.02;1685221;85;21557;-84
2022/07/01 00:55:56;;;;;;;67.00;34.45;;;;;;;18.52;100.00;99885.66;1685350;85;21029;-82
2022/07/01 00:58:28;;;;;;;135.68;65.20;;;;;;;18.48;100.00;99883.05;1684686;85;21101;-83
2022/07/01 01:00:58;;;;;;;133.10;60.05;;;;;;;18.50;100.00;99886.92;1684598;85;21053;-85
2022/07/01 01:03:26;;;;;;;125.02;61.13;;;;;;;18.48;100.00;99883.58;1680173;85;21533;-84
2022/07/01 01:05:56;;;;;;;102.15;52.65;;;;;;;18.46;100.00;99888.45;1651714;87;21085;-83
2022/07/01 01:08:23;;;;;;;72.87;39.55;;;;;;;18.40;100.00;99885.55;1651316;87;21089;-83
2022/07/01 01:10:51;;;;;;;51.35;28.27;;;;;;;18.36;100.00;99888.95;1651731;86;21052;-82
2022/07/01 01:13:18;;;;;;;31.95;16.48;;;;;;;18.29;100.00;99876.73;1623541;87;21015;-84
2022/07/01 01:15:45;;;;;;;51.77;25.65;;;;;;;18.25;100.00;99876.03;1652215;87;21078;-85
2022/07/01 01:18:14;;;;;;;173.25;81.60;;;;;;;18.22;100.00;99871.86;1658847;87;21057;-83
2022/07/01 01:20:41;;;;;;;141.05;64.85;;;;;;;18.18;100.00;99868.73;1631131;88;21078;-83
2022/07/01 01:23:08;;;;;;;104.38;48.42;;;;;;;18.15;100.00;99865.08;1619655;89;21087;-82
2022/07/01 01:25:36;;;;;;;63.73;30.35;;;;;;;18.14;100.00;99861.19;1640409;87;21099;-84
2022/07/01 01:28:03;;;;;;;36.85;17.30;;;;;;;18.10;100.00;99859.44;1642267;86;21062;-83
2022/07/01 01:30:30;;;;;;;23.25;9.65;;;;;;;18.08;100.00;99857.46;1647601;87;21070;-83
2022/07/01 01:32:57;;;;;;;27.27;12.82;;;;;;;18.07;100.00;99854.41;1647985;87;21044;-84
2022/07/01 01:35:25;;;;;;;40.50;20.95;;;;;;;18.06;100.00;99851.38;1647771;87;21041;-83
2022/07/01 01:37:51;;;;;;;39.98;20.95;;;;;;;18.07;100.00;99850.30;1663501;86;21602;-83
2022/07/01 01:40:18;;;;;;;30.57;16.77;;;;;;;18.08;100.00;99845.15;1640017;86;21527;-83
2022/07/01 01:42:45;;;;;;;48.60;27.98;;;;;;;18.10;100.00;99850.40;1663307;86;21041;-82
2022/07/01 01:45:12;;;;;;;54.13;29.10;;;;;;;18.13;100.00;99845.31;1663556;86;21535;-83
2022/07/01 01:47:39;;;;;;;66.10;35.30;;;;;;;18.15;100.00;99843.19;1663538;86;21097;-82
2022/07/01 01:50:08;;;;;;;70.57;36.48;;;;;;;18.15;100.00;99839.08;1663742;86;21030;-84
2022/07/01 01:52:37;;;;;;;66.25;35.00;;;;;;;18.16;100.00;99843.47;1663517;86;21061;-83
2022/07/01 01:55:05;;;;;;;58.45;30.60;;;;;;;18.16;100.00;99840.73;1663389;86;21042;-83
2022/07/01 01:57:32;;;;;;;49.18;25.82;;;;;;;18.13;100.00;99843.95;1663490;86;21140;-83
2022/07/01 01:59:59;;;;;;;43.55;23.38;;;;;;;18.13;100.00;99844.45;1669161;86;21049;-83
2022/07/01 02:02:26;;;;;;;48.00;25.97;;;;;;;18.12;100.00;99838.16;1677356;86;21065;-83
2022/07/01 02:04:53;;;;;;;42.08;21.87;;;;;;;18.12;100.00;99837.33;1677251;86;21068;-83
2022/07/01 02:07:20;;;;;;;41.35;21.90;;;;;;;18.12;100.00;99841.43;1650577;87;21025;-83
2022/07/01 02:09:47;;;;;;;39.88;20.32;;;;;;;18.10;100.00;99836.18;1677570;86;21063;-84
2022/07/01 02:12:16;;;;;;;42.05;22.13;;;;;;;18.08;100.00;99838.31;1650698;87;21058;-83
2022/07/01 02:14:43;;;;;;;27.95;14.25;;;;;;;18.04;100.00;99835.70;1677229;86;21057;-83
2022/07/01 02:17:10;;;;;;;28.95;14.70;;;;;;;18.00;100.00;99835.31;1650461;87;21014;-83
2022/07/01 02:19:37;;;;;;;22.65;10.25;;;;;;;17.96;100.00;99836.00;1676975;86;21081;-84
2022/07/01 02:22:04;;;;;;;13.13;7.10;;;;;;;17.92;100.00;99829.28;1650883;87;21017;-84
2022/07/01 02:24:31;;;;;;;12.85;6.17;;;;;;;17.86;100.00;99828.83;1660479;86;21068;-84
2022/07/01 02:26:58;;;;;;;12.28;6.35;;;;;;;17.80;100.00;99825.89;1657402;84;21157;-83
2022/07/01 02:29:25;;;;;;;11.93;6.17;;;;;;;17.73;100.00;99822.38;1653424;87;21005;-82
2022/07/01 02:31:53;;;;;;;13.68;6.37;;;;;;;17.68;100.00;99822.75;1653520;86;21559;-83
2022/07/01 02:34:19;;;;;;;13.58;6.67;;;;;;;17.62;100.00;99828.05;1653349;86;21050;-82
2022/07/01 02:36:46;;;;;;;15.38;7.30;;;;;;;17.58;100.00;99825.97;1653394;86;21061;-82
2022/07/01 02:39:13;;;;;;;17.80;7.92;;;;;;;17.54;100.00;99825.58;1653339;87;21045;-82
2022/07/01 02:44:25;;;;;;;16.10;6.90;;;;;;;17.50;100.00;99825.72;1653648;86;21045;-83
2022/07/01 02:46:52;;;;;;;19.17;7.10;;;;;;;17.50;100.00;99821.62;1653838;86;21037;-82
2022/07/01 02:49:19;;;;;;;14.40;6.65;;;;;;;17.51;100.00;99821.08;1653767;86;21045;-83
2022/07/01 02:51:46;;;;;;;13.28;6.78;;;;;;;17.51;100.00;99811.52;1653699;86;21512;-82
2022/07/01 02:54:13;;;;;;;14.65;6.85;;;;;;;17.52;100.00;99811.84;1653523;86;21073;-82
2022/07/01 02:56:40;;;;;;;11.63;6.05;;;;;;;17.52;100.00;99814.57;1635109;87;21033;-82
2022/07/01 02:59:07;;;;;;;13.22;6.22;;;;;;;17.54;100.00;99810.54;1653704;86;21086;-83
2022/07/01 03:01:34;;;;;;;16.10;6.65;;;;;;;17.58;100.00;99810.93;1653429;86;21065;-84
2022/07/01 03:04:01;;;;;;;14.13;6.70;;;;;;;17.61;100.00;99806.39;1653573;86;21545;-82
2022/07/01 03:06:28;;;;;;;19.67;6.50;;;;;;;17.65;100.00;99803.00;1653812;86;21049;-83
2022/07/01 03:08:57;;;;;;;18.07;6.50;;;;;;;17.70;100.00;99801.48;1653718;86;21029;-83
2022/07/01 03:11:25;;;;;;;15.55;6.45;;;;;;;17.72;100.00;99798.82;1656949;85;21049;-82
2022/07/01 03:13:51;;;;;;;13.65;6.55;;;;;;;17.78;100.00;99797.94;1684789;85;21104;-83
2022/07/01 03:16:19;;;;;;;16.35;7.03;;;;;;;17.83;100.00;99803.58;1685038;85;21085;-82
2022/07/01 03:18:46;;;;;;;12.68;5.95;;;;;;;17.88;100.00;99798.81;1665731;85;21049;-82
2022/07/01 03:21:13;;;;;;;11.57;5.97;;;;;;;17.96;100.00;99796.34;1684978;85;20981;-83
2022/07/01 03:23:40;;;;;;;16.52;7.37;;;;;;;18.01;100.00;99793.77;1684670;85;21081;-82
2022/07/01 03:26:07;;;;;;;19.70;8.20;;;;;;;18.08;100.00;99790.94;1684810;85;21067;-82
2022/07/01 03:28:35;;;;;;;14.83;7.00;;;;;;;18.14;100.00;99786.77;1684576;84;21061;-82
2022/07/01 03:31:02;;;;;;;12.35;6.70;;;;;;;18.20;100.00;99781.77;1684909;85;21077;-83
2022/07/01 03:33:29;;;;;;;11.70;6.35;;;;;;;18.28;100.00;99782.00;1684641;85;21092;-82
2022/07/01 03:35:56;;;;;;;13.30;6.30;;;;;;;18.37;100.00;99783.89;1684836;85;21033;-82
2022/07/01 03:38:23;;;;;;;13.78;5.87;;;;;;;18.49;100.00;99781.23;1684535;85;21037;-83
2022/07/01 03:40:50;;;;;;;8.78;5.50;;;;;;;18.60;100.00;99783.20;1684678;85;21057;-83
2022/07/01 03:43:17;;;;;;;11.00;5.53;;;;;;;18.71;100.00;99781.04;1684588;85;21073;-82
2022/07/01 03:45:44;;;;;;;9.38;5.12;;;;;;;18.79;100.00;99782.09;1684597;85;21069;-82
2022/07/01 03:48:12;;;;;;;12.03;5.30;;;;;;;18.86;100.00;99780.67;1684733;85;21037;-84
2022/07/01 03:50:39;;;;;;;8.63;4.97;;;;;;;18.94;100.00;99776.22;1684484;85;21015;-82
2022/07/01 03:55:52;;;;;;;10.25;5.33;;;;;;;19.08;100.00;99780.98;1684245;85;21068;-83
2022/07/01 03:58:20;;;;;;;10.20;5.60;;;;;;;19.17;100.00;99781.48;1684420;85;21595;-83
2022/07/01 04:00:47;;;;;;;9.65;4.58;;;;;;;19.25;100.00;99775.68;1684072;85;21037;-82
2022/07/01 04:03:14;;;;;;;10.72;5.55;;;;;;;19.31;100.00;99776.64;1684489;85;21037;-82
2022/07/01 04:05:41;;;;;;;9.33;5.10;;;;;;;19.40;100.00;99781.25;1684457;85;21045;-81
2022/07/01 04:08:08;;;;;;;9.20;5.17;;;;;;;19.50;100.00;99777.41;1684122;85;21056;-82
2022/07/01 04:10:36;;;;;;;8.50;5.47;;;;;;;19.62;100.00;99778.77;1684348;85;21081;-81
2022/07/01 04:13:04;;;;;;;7.75;5.15;;;;;;;19.73;100.00;99779.33;1684874;85;21033;-82
2022/07/01 04:15:34;;;;;;;12.45;5.50;;;;;;;19.83;100.00;99791.95;1685100;85;21073;-82
2022/07/01 04:18:02;;;;;;;13.65;5.60;;;;;;;19.93;100.00;99796.01;1685882;85;21064;-85
2022/07/01 04:20:31;;;;;;;8.63;5.17;;;;;;;20.02;100.00;99794.02;1666674;85;21038;-82
2022/07/01 04:22:59;;;;;;;6.28;4.55;;;;;;;20.13;100.00;99788.22;1680326;82;21097;-83
2022/07/01 04:25:29;;;;;;;8.78;4.90;;;;;;;20.27;100.00;99795.16;1686121;82;21095;-83
2022/07/01 04:27:55;;;;;;;8.68;5.15;;;;;;;20.44;100.00;99802.09;1686287;82;21037;-83
2022/07/01 04:30:22;;;;;;;8.40;5.33;;;;;;;20.72;100.00;99806.55;1686731;85;21021;-83
2022/07/01 04:33:34;;;;;;;10.38;5.10;;;;;;;21.00;100.00;99807.94;1685862;85;21056;-84
2022/07/01 04:36:01;;;;;;;9.95;4.90;;;;;;;21.33;100.00;99819.25;1685364;85;21016;-83
2022/07/01 04:38:28;;;;;;;18.23;5.37;;;;;;;21.73;100.00;99828.78;1685380;85;21080;-83
2022/07/01 04:43:42;;;;;;;10.78;4.90;;;;;;;22.34;100.00;99844.05;1685037;83;21697;-82
2022/07/01 04:46:09;;;;;;;9.53;5.08;;;;;;;22.66;100.00;99856.33;1685301;85;21001;-83
2022/07/01 04:48:35;;;;;;;9.40;5.00;;;;;;;22.93;100.00;99868.81;1685618;85;21087;-82
2022/07/01 04:51:02;;;;;;;9.63;5.12;;;;;;;23.20;100.00;99880.47;1651198;85;21033;-83
2022/07/01 04:53:30;;;;;;;10.18;5.15;;;;;;;23.47;100.00;99885.98;1649298;86;21038;-80
2022/07/01 04:55:57;;;;;;;35.45;24.65;;;;;;;23.73;100.00;99897.27;1648450;86;21121;-78
2022/07/01 04:58:25;;;;;;;13.72;8.10;;;;;;;23.93;100.00;99904.95;1671012;85;21051;-79
2022/07/01 05:00:54;;;;;;;12.73;6.85;;;;;;;24.14;100.00;99921.14;1670186;84;21555;-79
2022/07/01 05:03:21;;;;;;;12.78;6.83;;;;;;;24.32;100.00;99922.10;1648416;87;20982;-81
2022/07/01 05:05:48;;;;;;;9.98;5.70;;;;;;;24.57;100.00;99933.91;1648181;86;21081;-79
2022/07/01 05:08:16;;;;;;;9.23;5.47;;;;;;;24.79;100.00;99932.39;1662354;85;21061;-79
2022/07/01 05:10:43;;;;;;;10.32;5.17;;;;;;;24.96;100.00;99939.66;1660387;85;21102;-79
2022/07/01 05:13:13;;;;;;;8.65;4.75;;;;;;;25.13;100.00;99945.83;1645865;87;21060;-78
2022/07/01 05:15:41;;;;;;;10.72;5.28;;;;;;;25.24;100.00;99955.00;1646854;86;21069;-80
2022/07/01 05:23:42;;;;;;;16.93;8.25;;;;;;;25.48;100.00;99958.17;1656886;85;21061;-84
2022/07/01 05:26:09;;;;;;;19.90;11.40;;;;;;;25.69;100.00;99959.59;1653878;85;21464;-85
2022/07/01 05:28:37;;;;;;;18.02;8.53;;;;;;;25.79;100.00;99960.19;1679779;84;21025;-79
2022/07/01 05:31:05;;;;;;;25.52;15.63;;;;;;;25.76;100.00;99967.94;1675435;86;21085;-83
2022/07/01 05:33:32;;;;;;;480.87;414.60;;;;;;;25.88;100.00;99965.45;1693241;84;21095;-81
2022/07/01 05:35:59;;;;;;;93.25;83.95;;;;;;;26.06;100.00;99974.64;1694954;84;21550;-83
2022/07/01 05:38:27;;;;;;;39.63;31.55;;;;;;;26.26;100.00;99969.68;1696698;84;21057;-85
2022/07/01 05:40:54;;;;;;;13.30;7.75;;;;;;;26.51;100.00;99969.39;1656479;86;21522;-81
2022/07/01 05:43:21;;;;;;;9.35;6.40;;;;;;;26.66;100.00;99977.70;1693519;84;21003;-82
2022/07/01 05:45:48;;;;;;;40.08;22.40;;;;;;;26.77;100.00;99971.58;1674238;86;21052;-81
2022/07/01 05:48:15;;;;;;;20.65;13.88;;;;;;;26.95;100.00;99973.48;1675089;86;21017;-81
2022/07/01 05:53:11;;;;;;;14.95;7.50;;;;;;;27.17;100.00;99982.86;1595499;89;21153;-82
2022/07/01 05:55:40;;;;;;;41.83;21.25;;;;;;;27.21;100.00;99994.48;1599541;89;21136;-80
2022/07/01 05:58:08;;;;;;;20.35;12.05;;;;;;;27.14;100.00;99995.91;1608148;89;21658;-79
2022/07/01 06:00:35;;;;;;;37.40;19.65;;;;;;;27.03;100.00;99990.95;1606319;89;21085;-83
2022/07/01 06:03:03;;;;;;;52.23;28.87;;;;;;;27.15;100.00;99995.63;1580087;91;21074;-79
2022/07/01 06:05:31;;;;;;;35.15;18.60;;;;;;;27.27;100.00;99989.23;1606619;89;21092;-82
2022/07/01 06:07:57;;;;;;;14.47;7.55;;;;;;;27.25;100.00;99991.44;1568536;88;21106;-79
2022/07/01 06:10:25;;;;;;;13.98;5.10;;;;;;;27.33;100.00;99998.37;1588754;90;21112;-82
2022/07/01 06:12:52;;;;;;;10.63;4.87;;;;;;;27.48;100.00;100003.58;1562416;91;21627;-80
2022/07/01 06:15:19;;;;;;;10.65;4.78;;;;;;;27.56;100.00;100000.22;1588709;89;21102;-83
2022/07/01 06:17:49;;;;;;;16.75;5.03;;;;;;;27.80;100.00;100005.91;1562598;91;21046;-82
2022/07/01 06:20:16;;;;;;;17.27;8.05;;;;;;;27.98;100.00;100001.68;1587855;90;21054;-81
2022/07/01 06:22:43;;;;;;;17.02;5.97;;;;;;;28.04;100.00;100011.62;1563295;91;21018;-81
2022/07/01 06:25:11;;;;;;;10.78;4.80;;;;;;;27.98;100.00;100005.28;1588512;90;21029;-82
2022/07/01 06:27:43;;;;;;;11.80;5.85;;;;;;;28.20;100.00;99998.45;1593203;89;21402;-78
2022/07/01 06:30:13;;;;;;;20.88;5.72;;;;;;;28.39;100.00;100004.97;1527574;92;21085;-78
2022/07/01 06:32:41;;;;;;;67.00;36.45;;;;;;;28.38;100.00;100011.67;1525349;94;21104;-83
2022/07/01 06:35:09;;;;;;;54.53;26.37;;;;;;;28.41;100.00;100004.11;1501587;95;21050;-75
2022/07/01 06:37:36;;;;;;;125.78;60.23;;;;;;;28.29;100.00;100019.52;1525785;94;21070;-83
2022/07/01 06:40:10;;;;;;;25.20;11.97;;;;;;;28.19;100.00;100008.75;1501720;95;21135;-84
2022/07/01 06:42:37;;;;;;;57.78;15.05;;;;;;;28.35;100.00;100003.08;1505551;94;21058;-79
2022/07/01 06:45:06;;;;;;;21.75;9.83;;;;;;;28.41;100.00;100006.89;1504286;95;21555;-81
2022/07/01 06:47:33;;;;;;;16.80;7.90;;;;;;;28.58;100.00;100004.30;1525134;93;21170;-78
2022/07/01 06:50:00;;;;;;;14.68;5.55;;;;;;;28.82;100.00;99996.55;1519989;93;21141;-81
2022/07/01 06:52:27;;;;;;;15.13;6.42;;;;;;;29.06;100.00;100001.58;1537372;93;21190;-85
2022/07/01 06:54:54;;;;;;;29.23;16.80;;;;;;;29.06;100.00;99998.80;1562502;92;21602;-81
2022/07/01 06:57:30;;;;;;;25.70;8.88;;;;;;;29.19;100.00;99990.89;1548022;93;21072;-83
2022/07/01 06:59:57;;;;;;;11.38;6.28;;;;;;;29.34;100.00;99997.11;1565823;92;21092;-80
2022/07/01 07:02:27;;;;;;;19.87;6.58;;;;;;;29.51;95.44;99995.77;1546918;93;21132;-80
2022/07/01 07:05:02;;;;;;;32.60;6.78;;;;;;;29.72;97.38;99999.11;1566459;91;21573;-77
2022/07/01 07:07:32;;;;;;;12.37;5.03;;;;;;;30.06;94.52;100004.48;1547708;93;21156;-78
2022/07/01 07:10:01;;;;;;;25.08;12.95;;;;;;;30.38;94.15;100001.50;1565618;92;21184;-77
2022/07/01 07:12:28;;;;;;;42.60;13.93;;;;;;;30.65;86.70;99998.52;1558959;91;21643;-79
2022/07/01 07:14:55;;;;;;;14.33;5.42;;;;;;;30.83;81.75;99996.25;1571070;91;21067;-81
2022/07/01 07:17:23;;;;;;;30.52;11.95;;;;;;;31.06;79.15;99992.77;1570613;91;21555;-80
2022/07/01 07:19:51;;;;;;;19.42;9.73;;;;;;;31.33;76.59;99998.95;1571884;91;21080;-82
2022/07/01 07:22:18;;;;;;;24.35;5.25;;;;;;;31.30;67.96;99995.38;1551711;92;21080;-81
2022/07/01 07:24:45;;;;;;;57.30;51.42;;;;;;;31.32;72.20;99996.70;1580982;91;21097;-82
2022/07/01 07:27:15;;;;;;;168.22;101.05;;;;;;;31.49;73.45;99997.50;1644937;86;21033;-83
2022/07/01 07:29:42;;;;;;;89.05;70.40;;;;;;;31.70;71.14;100004.88;1672373;85;21069;-81
2022/07/01 07:32:10;;;;;;;40.23;24.20;;;;;;;31.40;64.68;99998.77;1668898;86;21040;-83
2022/07/01 07:34:37;;;;;;;20.88;5.03;;;;;;;31.20;71.81;99995.84;1668819;86;21158;-87
2022/07/01 07:37:04;;;;;;;22.55;8.35;;;;;;;31.42;67.40;99998.47;1668347;86;21049;-80
2022/07/01 07:39:32;;;;;;;65.60;39.85;;;;;;;31.23;58.16;99986.85;1668656;86;21088;-82
2022/07/01 07:42:00;;;;;;;18.98;9.85;;;;;;;30.92;62.29;99994.15;1668454;86;21018;-82
2022/07/01 07:44:29;;;;;;;11.05;4.53;;;;;;;31.04;64.37;99999.52;1668494;86;21149;-81
2022/07/01 07:46:59;;;;;;;8.75;3.80;;;;;;;31.37;65.46;99997.17;1668975;85;21050;-80
2022/07/01 07:49:27;;;;;;;11.80;5.40;;;;;;;31.61;63.93;99996.98;1668618;86;21012;-82
2022/07/01 07:51:54;;;;;;;14.87;7.90;;;;;;;31.81;60.54;99992.89;1668760;86;21078;-82
2022/07/01 07:54:21;;;;;;;12.23;4.80;;;;;;;31.83;59.21;99997.59;1669087;86;21051;-81
2022/07/01 07:56:48;;;;;;;12.07;4.17;;;;;;;31.99;58.83;99999.45;1668886;86;21089;-82
2022/07/01 07:59:15;;;;;;;11.30;3.58;;;;;;;32.15;56.24;99988.19;1656155;86;21021;-82
2022/07/01 08:01:42;;;;;;;51.77;10.13;;;;;;;32.24;57.75;99998.04;1653644;87;21761;-80
2022/07/01 08:04:09;;;;;;;13.53;4.83;;;;;;;32.46;57.14;99989.41;1653092;86;21096;-80
2022/07/01 08:06:36;;;;;;;24.15;11.20;;;;;;;32.69;58.12;99991.64;1652731;87;21112;-81
2022/07/01 08:09:03;;;;;;;9.20;3.62;;;;;;;32.76;50.47;99989.20;1653414;86;21012;-82
2022/07/01 08:11:31;;;;;;;4.70;2.75;;;;;;;32.47;50.35;99977.87;1654543;87;21112;-79
2022/07/01 08:13:59;;;;;;;22.35;4.30;;;;;;;32.52;51.88;99989.52;1655594;87;21052;-80
2022/07/01 08:16:29;;;;;;;9.03;4.22;;;;;;;32.62;49.16;99976.70;1655283;86;21026;-85
2022/07/01 08:18:57;;;;;;;38.70;5.33;;;;;;;32.67;51.05;99977.96;1655576;86;20990;-85
2022/07/01 08:21:26;;;;;;;35.35;16.75;;;;;;;32.91;50.66;99973.95;1654067;86;21558;-80
2022/07/01 08:23:53;;;;;;;6.65;2.87;;;;;;;33.08;47.18;99981.61;1654186;86;21505;-81
2022/07/01 08:26:20;;;;;;;5.45;3.10;;;;;;;32.67;42.51;99977.96;1654197;87;21536;-84
2022/07/01 08:28:47;;;;;;;9.38;3.02;;;;;;;32.25;46.44;99978.73;1653344;84;21073;-84
2022/07/01 08:31:14;;;;;;;6.83;2.90;;;;;;;32.36;47.39;99980.11;1648698;87;21039;-81
2022/07/01 08:33:43;;;;;;;14.78;3.37;;;;;;;32.68;45.79;99974.58;1649434;87;21033;-85
2022/07/01 08:36:15;;;;;;;10.25;5.62;;;;;;;33.02;47.65;99970.28;1689788;84;21523;-80
2022/07/01 08:39:12;;;;;;;11.28;6.83;;;;;;;33.37;44.62;99966.23;1649612;87;21030;-85
2022/07/01 08:41:42;;;;;;;7.20;3.00;;;;;;;33.72;45.33;99958.73;1575991;90;21721;-80
2022/07/01 08:44:09;;;;;;;48.50;5.25;;;;;;;34.11;45.07;99958.91;1531644;94;21066;-81
2022/07/01 08:46:36;;;;;;;10.43;5.92;;;;;;;34.38;43.76;99964.16;1516399;95;21111;-78
2022/07/01 08:49:03;;;;;;;30.00;23.87;;;;;;;34.52;40.21;99958.94;1553855;92;21109;-83
2022/07/01 08:51:31;;;;;;;11.25;7.35;;;;;;;34.58;41.07;99958.98;1553841;92;21150;-81
2022/07/01 08:53:58;;;;;;;15.90;3.60;;;;;;;34.68;38.37;99954.42;1553710;91;21069;-84
2022/07/01 08:56:45;;;;;;;9.05;2.90;;;;;;;34.66;38.04;99960.95;1553207;92;21164;-79
2022/07/01 08:59:27;;;;;;;5.80;2.90;;;;;;;34.67;36.89;99969.64;1553747;92;21150;-78
2022/07/01 09:02:00;;;;;;;7.87;2.70;;;;;;;34.79;36.70;99960.52;1553568;92;21049;-81
2022/07/01 09:04:27;;;;;;;5.87;2.75;;;;;;;34.87;36.56;99955.46;1470277;97;21607;-81
2022/07/01 09:07:08;;;;;;;5.70;2.75;;;;;;;34.86;36.27;99955.80;1469866;98;21150;-80
2022/07/01 09:09:37;;;;;;;9.08;2.83;;;;;;;34.89;37.58;99956.53;1478244;96;21140;-82
2022/07/01 09:12:05;;;;;;;11.68;5.60;;;;;;;34.95;35.16;99961.64;1478270;97;21119;-82
2022/07/01 09:14:35;;;;;;;13.58;3.65;;;;;;;34.92;36.33;99965.11;1491160;96;21117;-82
2022/07/01 09:17:05;;;;;;;9.10;3.05;;;;;;;34.93;34.48;99955.50;1491472;96;21222;-82
2022/07/01 09:19:36;;;;;;;17.80;4.12;;;;;;;34.55;35.17;99956.88;1509077;94;21168;-83
2022/07/01 09:22:04;;;;;;;8.50;3.10;;;;;;;34.52;36.16;99958.94;1506141;95;21040;-81
2022/07/01 09:24:39;;;;;;;7.22;3.20;;;;;;;34.78;36.16;99956.90;1506041;95;21651;-84
2022/07/01 09:27:13;;;;;;;18.45;11.30;;;;;;;35.07;37.23;99959.49;1505499;95;21039;-82
2022/07/01 09:29:46;;;;;;;34.23;8.38;;;;;;;35.30;36.70;99944.60;1498539;95;21067;-83
2022/07/01 09:32:16;;;;;;;12.07;4.97;;;;;;;35.43;37.04;99944.09;1509034;95;21648;-79
2022/07/01 09:34:45;;;;;;;15.08;3.95;;;;;;;35.49;37.63;99941.94;1491097;95;21160;-83
2022/07/01 09:37:15;;;;;;;8.48;4.20;;;;;;;35.58;35.17;99944.09;1508351;95;21609;-81
2022/07/01 09:39:47;;;;;;;41.08;6.25;;;;;;;35.57;35.01;99941.03;1461837;98;21171;-81
2022/07/01 09:42:17;;;;;;;60.50;8.10;;;;;;;35.57;34.49;99943.02;1462319;98;21135;-82
2022/07/01 09:45:10;;;;;;;13.88;3.80;;;;;;;35.52;34.84;99949.10;1461528;98;21569;-81
2022/07/01 09:47:40;;;;;;;12.47;5.47;;;;;;;35.59;35.95;99944.31;1460837;98;21167;-82
2022/07/01 09:50:08;;;;;;;10.18;3.90;;;;;;;35.45;34.74;99933.92;1457822;98;21175;-77
2022/07/01 09:52:37;;;;;;;9.73;3.50;;;;;;;35.41;36.28;99931.56;1460880;98;21239;-80
2022/07/01 09:55:06;;;;;;;21.42;6.03;;;;;;;35.57;37.51;99930.38;1460611;98;21091;-76
2022/07/01 09:57:34;;;;;;;25.15;4.22;;;;;;;35.76;37.03;99934.16;1460773;98;21178;-85
2022/07/01 10:00:01;;;;;;;9.60;3.30;;;;;;;35.83;35.96;99932.42;1461143;97;21655;-79
2022/07/01 10:02:30;;;;;;;17.90;3.85;;;;;;;35.87;35.91;99925.52;1498972;96;21125;-81
2022/07/01 10:05:02;;;;;;;14.58;3.40;;;;;;;35.99;35.50;99927.58;1503352;95;21073;-79
2022/07/01 10:08:11;;;;;;;7.20;2.70;;;;;;;35.99;35.01;99931.80;1475207;96;21184;-79
2022/07/01 10:11:07;;;;;;;4.90;2.83;;;;;;;35.89;34.43;99928.25;1474689;97;21170;-75
2022/07/01 10:13:34;;;;;;;15.75;3.75;;;;;;;35.96;34.14;99915.60;1504994;95;21068;-77
2022/07/01 10:16:03;;;;;;;4.92;2.47;;;;;;;36.06;34.63;99926.44;1499511;94;21700;-80
2022/07/01 10:18:30;;;;;;;17.62;9.03;;;;;;;36.16;34.66;99918.97;1505178;95;21075;-77
2022/07/01 10:20:57;;;;;;;16.73;4.22;;;;;;;36.31;34.86;99910.47;1505965;95;21598;-78
2022/07/01 10:23:40;;;;;;;8.60;3.87;;;;;;;36.45;35.15;99909.56;1505658;95;21565;-81
2022/07/01 10:26:13;;;;;;;12.35;4.65;;;;;;;36.54;33.96;99918.50;1505558;95;21140;-78
2022/07/01 10:28:43;;;;;;;8.85;3.65;;;;;;;36.64;33.35;99906.80;1505389;95;21100;-77
2022/07/01 10:31:17;;;;;;;12.07;3.98;;;;;;;36.41;31.82;99909.22;1525158;93;21126;-78
2022/07/01 10:33:48;;;;;;;5.28;3.72;;;;;;;35.92;32.28;99901.41;1527586;94;21098;-82
2022/07/01 10:36:29;;;;;;;6.85;3.70;;;;;;;35.46;32.50;99892.83;1565652;88;21068;-82
2022/07/01 10:39:08;;;;;;;7.00;3.45;;;;;;;35.23;33.23;99887.30;1627296;88;21052;-80
2022/07/01 10:41:43;;;;;;;13.08;3.55;;;;;;;35.27;33.30;99888.25;1627487;88;21043;-79
2022/07/01 10:44:12;;;;;;;8.70;3.65;;;;;;;35.04;32.53;99877.88;1627662;88;21083;-77
2022/07/01 10:46:59;;;;;;;11.48;3.80;;;;;;;34.72;34.57;99888.63;1594732;90;21069;-80
2022/07/01 10:49:52;;;;;;;16.67;4.00;;;;;;;34.85;34.53;99883.92;1577462;91;21048;-84
2022/07/01 10:52:19;;;;;;;9.55;3.02;;;;;;;35.06;34.98;99884.82;1596282;90;21105;-78
2022/07/01 10:54:52;;;;;;;14.43;3.20;;;;;;;35.27;34.91;99875.61;1577173;90;21056;-80
2022/07/01 10:57:25;;;;;;;12.85;4.83;;;;;;;35.30;33.36;99872.94;1571318;90;21134;-75
2022/07/01 11:00:00;;;;;;;;;;;;;;;35.09;34.54;99874.88;1537104;93;21057;-76
2022/07/01 11:02:35;;;;;;;22.30;4.10;;;;;;;34.93;33.31;99872.64;1518706;94;20125;-75
2022/07/01 11:05:15;;;;;;;7.22;2.70;;;;;;;34.71;35.76;99877.16;1479491;97;21172;-77
2022/07/01 11:07:45;;;;;;;17.12;3.70;;;;;;;34.87;36.00;99873.20;1536517;93;21648;-76
2022/07/01 11:10:15;;;;;;;3.92;2.90;;;;;;;34.78;36.15;99867.62;1536367;93;21117;-75
2022/07/01 11:12:46;;;;;;;9.05;3.50;;;;;;;34.93;37.91;99867.62;1530112;93;21215;-77
2022/07/01 11:15:13;;;;;;;11.33;4.83;;;;;;;35.19;37.81;99873.08;1523726;93;21625;-76
2022/07/01 11:17:47;;;;;;;8.78;4.45;;;;;;;35.42;38.01;99867.98;1499345;94;21142;-76
2022/07/01 11:20:17;;;;;;;11.12;2.98;;;;;;;35.62;38.34;99862.69;1500568;95;21086;-76
2022/07/01 11:22:44;;;;;;;30.97;4.28;;;;;;;35.76;37.35;99860.44;1500908;96;21078;-76
2022/07/01 11:25:12;;;;;;;14.73;4.10;;;;;;;35.69;36.78;99864.36;1500788;96;21050;-77
2022/07/01 11:27:39;;;;;;;13.45;3.77;;;;;;;35.71;36.87;99865.68;1500544;96;21145;-77
2022/07/01 11:30:13;;;;;;;22.22;4.72;;;;;;;35.70;36.69;99869.68;1511917;92;21099;-75
2022/07/01 11:32:50;;;;;;;39.75;5.30;;;;;;;35.66;37.54;99858.02;1530150;94;21099;-76
2022/07/01 11:41:06;;;;;;;4.05;2.77;;;;;;;34.90;37.34;99865.48;1481656;95;20173;-76
2022/07/01 11:43:37;;;;;;;26.15;16.87;;;;;;;34.78;38.78;99863.42;1460470;95;21191;-77
2022/07/01 11:46:06;;;;;;;17.30;9.75;;;;;;;34.90;39.31;99849.47;1424600;100;21131;-75
2022/07/01 11:48:39;;;;;;;10.75;5.00;;;;;;;35.13;39.47;99859.81;1433203;100;21146;-76
2022/07/01 11:51:18;;;;;;;5.90;3.90;;;;;;;35.37;38.57;99858.34;1433315;100;21194;-76